sensor_id;sensor_type;location;lat;lon;timestamp;P1;durP1;ratioP1;P2;durP2;ratioP2
5937;SDS011;2994;51.220;4.412;2023-12-22T00:01:13;9.80;;;3.53;;
5937;SDS011;2994;51.220;4.412;2023-12-22T00:03:42;12.47;;;3.43;;
5937;SDS011;2994;51.220;4.412;2023-12-22T00:06:08;8.63;;;3.57;;
5937;SDS011;2994;51.220;4.412;2023-12-22T00:08:33;16.60;;;4.77;;
5937;SDS011;2994;51.220;4.412;2023-12-22T00:10:59;8.93;;;3.43;;
5937;SDS011;2994;51.220;4.412;2023-12-22T00:13:24;11.70;;;3.83;;
5937;SDS011;2994;51.220;4.412;2023-12-22T00:15:50;14.63;;;4.13;;
5937;SDS011;2994;51.220;4.412;2023-12-22T00:18:16;12.33;;;4.77;;
5937;SDS011;2994;51.220;4.412;2023-12-22T00:20:41;15.17;;;5.60;;
5937;SDS011;2994;51.220;4.412;2023-12-22T00:23:06;12.87;;;3.83;;
5937;SDS011;2994;51.220;4.412;2023-12-22T00:25:32;14.37;;;4.03;;
5937;SDS011;2994;51.220;4.412;2023-12-22T00:27:57;11.87;;;3.40;;
5937;SDS011;2994;51.220;4.412;2023-12-22T00:30:24;12.73;;;3.70;;
5937;SDS011;2994;51.220;4.412;2023-12-22T00:32:50;9.37;;;3.50;;
5937;SDS011;2994;51.220;4.412;2023-12-22T00:35:15;12.10;;;3.00;;
5937;SDS011;2994;51.220;4.412;2023-12-22T00:37:41;10.10;;;4.10;;
5937;SDS011;2994;51.220;4.412;2023-12-22T00:40:07;12.17;;;4.37;;
5937;SDS011;2994;51.220;4.412;2023-12-22T00:42:34;9.43;;;4.30;;
5937;SDS011;2994;51.220;4.412;2023-12-22T00:45:00;10.47;;;3.30;;
5937;SDS011;2994;51.220;4.412;2023-12-22T00:47:25;16.20;;;4.83;;
5937;SDS011;2994;51.220;4.412;2023-12-22T00:49:50;10.63;;;4.00;;
5937;SDS011;2994;51.220;4.412;2023-12-22T00:52:16;10.43;;;3.80;;
5937;SDS011;2994;51.220;4.412;2023-12-22T00:54:41;11.40;;;3.90;;
5937;SDS011;2994;51.220;4.412;2023-12-22T00:57:07;10.63;;;3.37;;
5937;SDS011;2994;51.220;4.412;2023-12-22T00:59:32;22.57;;;6.30;;
5937;SDS011;2994;51.220;4.412;2023-12-22T01:01:58;12.07;;;4.13;;
5937;SDS011;2994;51.220;4.412;2023-12-22T01:04:23;15.30;;;3.43;;
5937;SDS011;2994;51.220;4.412;2023-12-22T01:06:50;15.27;;;4.60;;
5937;SDS011;2994;51.220;4.412;2023-12-22T01:09:16;11.30;;;4.13;;
5937;SDS011;2994;51.220;4.412;2023-12-22T01:11:41;11.07;;;4.47;;
5937;SDS011;2994;51.220;4.412;2023-12-22T01:14:06;8.53;;;3.43;;
5937;SDS011;2994;51.220;4.412;2023-12-22T01:16:32;10.67;;;3.80;;
5937;SDS011;2994;51.220;4.412;2023-12-22T01:18:58;13.87;;;4.60;;
5937;SDS011;2994;51.220;4.412;2023-12-22T01:21:23;12.70;;;4.60;;
5937;SDS011;2994;51.220;4.412;2023-12-22T01:23:49;11.27;;;4.03;;
5937;SDS011;2994;51.220;4.412;2023-12-22T01:26:14;11.10;;;4.37;;
5937;SDS011;2994;51.220;4.412;2023-12-22T01:28:40;13.23;;;4.10;;
5937;SDS011;2994;51.220;4.412;2023-12-22T01:31:05;14.27;;;4.40;;
5937;SDS011;2994;51.220;4.412;2023-12-22T01:33:31;12.53;;;5.00;;
5937;SDS011;2994;51.220;4.412;2023-12-22T01:35:56;9.93;;;4.20;;
5937;SDS011;2994;51.220;4.412;2023-12-22T01:38:23;10.83;;;3.63;;
5937;SDS011;2994;51.220;4.412;2023-12-22T01:40:49;13.07;;;5.03;;
5937;SDS011;2994;51.220;4.412;2023-12-22T01:43:14;8.90;;;3.83;;
5937;SDS011;2994;51.220;4.412;2023-12-22T01:45:42;19.67;;;4.93;;
5937;SDS011;2994;51.220;4.412;2023-12-22T01:48:08;12.23;;;4.63;;
5937;SDS011;2994;51.220;4.412;2023-12-22T01:50:34;12.63;;;4.00;;
5937;SDS011;2994;51.220;4.412;2023-12-22T01:53:01;13.77;;;4.77;;
5937;SDS011;2994;51.220;4.412;2023-12-22T01:55:27;14.70;;;4.63;;
5937;SDS011;2994;51.220;4.412;2023-12-22T01:57:53;10.10;;;4.47;;
5937;SDS011;2994;51.220;4.412;2023-12-22T02:00:18;14.63;;;5.47;;
5937;SDS011;2994;51.220;4.412;2023-12-22T02:02:44;15.50;;;4.70;;
5937;SDS011;2994;51.220;4.412;2023-12-22T02:05:10;10.67;;;4.00;;
5937;SDS011;2994;51.220;4.412;2023-12-22T02:07:37;10.33;;;3.40;;
5937;SDS011;2994;51.220;4.412;2023-12-22T02:10:06;14.90;;;3.93;;
5937;SDS011;2994;51.220;4.412;2023-12-22T02:12:36;12.67;;;4.10;;
5937;SDS011;2994;51.220;4.412;2023-12-22T02:15:01;13.50;;;4.90;;
5937;SDS011;2994;51.220;4.412;2023-12-22T02:20:09;17.57;;;5.77;;
5937;SDS011;2994;51.220;4.412;2023-12-22T02:22:35;10.03;;;3.90;;
5937;SDS011;2994;51.220;4.412;2023-12-22T02:25:00;17.13;;;4.90;;
5937;SDS011;2994;51.220;4.412;2023-12-22T02:32:41;10.77;;;4.60;;
5937;SDS011;2994;51.220;4.412;2023-12-22T02:35:11;13.83;;;4.13;;
5937;SDS011;2994;51.220;4.412;2023-12-22T02:37:42;10.77;;;5.43;;
5937;SDS011;2994;51.220;4.412;2023-12-22T02:40:10;11.70;;;4.70;;
5937;SDS011;2994;51.220;4.412;2023-12-22T02:42:36;11.40;;;3.73;;
5937;SDS011;2994;51.220;4.412;2023-12-22T02:45:04;7.23;;;3.47;;
5937;SDS011;2994;51.220;4.412;2023-12-22T02:47:38;8.80;;;4.13;;
5937;SDS011;2994;51.220;4.412;2023-12-22T02:50:04;8.97;;;4.03;;
5937;SDS011;2994;51.220;4.412;2023-12-22T02:52:30;12.67;;;4.00;;
5937;SDS011;2994;51.220;4.412;2023-12-22T02:54:57;10.53;;;4.40;;
5937;SDS011;2994;51.220;4.412;2023-12-22T02:57:23;15.43;;;4.53;;
5937;SDS011;2994;51.220;4.412;2023-12-22T02:59:48;13.33;;;4.53;;
5937;SDS011;2994;51.220;4.412;2023-12-22T03:02:14;9.00;;;3.13;;
5937;SDS011;2994;51.220;4.412;2023-12-22T03:04:39;10.90;;;4.03;;
5937;SDS011;2994;51.220;4.412;2023-12-22T03:07:05;8.80;;;3.20;;
5937;SDS011;2994;51.220;4.412;2023-12-22T03:09:30;9.50;;;3.83;;
5937;SDS011;2994;51.220;4.412;2023-12-22T03:11:57;12.00;;;3.83;;
5937;SDS011;2994;51.220;4.412;2023-12-22T03:14:27;9.73;;;3.83;;
5937;SDS011;2994;51.220;4.412;2023-12-22T03:16:58;9.33;;;5.10;;
5937;SDS011;2994;51.220;4.412;2023-12-22T03:19:30;11.50;;;4.57;;
5937;SDS011;2994;51.220;4.412;2023-12-22T03:21:56;12.57;;;4.50;;
5937;SDS011;2994;51.220;4.412;2023-12-22T03:24:22;10.10;;;3.60;;
5937;SDS011;2994;51.220;4.412;2023-12-22T03:26:48;11.33;;;4.70;;
5937;SDS011;2994;51.220;4.412;2023-12-22T03:29:14;9.17;;;3.53;;
5937;SDS011;2994;51.220;4.412;2023-12-22T03:31:40;13.77;;;4.87;;
5937;SDS011;2994;51.220;4.412;2023-12-22T03:34:06;15.63;;;4.70;;
5937;SDS011;2994;51.220;4.412;2023-12-22T03:36:31;20.70;;;7.10;;
5937;SDS011;2994;51.220;4.412;2023-12-22T03:38:57;10.33;;;4.87;;
5937;SDS011;2994;51.220;4.412;2023-12-22T03:41:22;16.73;;;7.07;;
5937;SDS011;2994;51.220;4.412;2023-12-22T03:43:48;12.33;;;4.90;;
5937;SDS011;2994;51.220;4.412;2023-12-22T03:46:13;15.57;;;5.50;;
5937;SDS011;2994;51.220;4.412;2023-12-22T03:48:39;12.30;;;4.80;;
5937;SDS011;2994;51.220;4.412;2023-12-22T03:51:04;13.10;;;5.53;;
5937;SDS011;2994;51.220;4.412;2023-12-22T03:53:30;17.90;;;5.50;;
5937;SDS011;2994;51.220;4.412;2023-12-22T03:55:55;13.70;;;4.97;;
5937;SDS011;2994;51.220;4.412;2023-12-22T03:58:20;11.80;;;5.17;;
5937;SDS011;2994;51.220;4.412;2023-12-22T04:00:46;15.40;;;5.10;;
5937;SDS011;2994;51.220;4.412;2023-12-22T04:03:12;20.03;;;5.47;;
5937;SDS011;2994;51.220;4.412;2023-12-22T04:05:38;10.93;;;4.17;;
5937;SDS011;2994;51.220;4.412;2023-12-22T04:08:03;15.33;;;5.93;;
5937;SDS011;2994;51.220;4.412;2023-12-22T04:10:29;14.23;;;5.00;;
5937;SDS011;2994;51.220;4.412;2023-12-22T04:12:56;14.20;;;5.57;;
5937;SDS011;2994;51.220;4.412;2023-12-22T04:15:22;13.53;;;5.47;;
5937;SDS011;2994;51.220;4.412;2023-12-22T04:17:47;13.03;;;4.53;;
5937;SDS011;2994;51.220;4.412;2023-12-22T04:20:13;16.03;;;5.63;;
5937;SDS011;2994;51.220;4.412;2023-12-22T04:22:38;28.60;;;8.13;;
5937;SDS011;2994;51.220;4.412;2023-12-22T04:25:04;13.50;;;4.10;;
5937;SDS011;2994;51.220;4.412;2023-12-22T04:27:31;14.53;;;4.70;;
5937;SDS011;2994;51.220;4.412;2023-12-22T04:29:56;16.80;;;4.93;;
5937;SDS011;2994;51.220;4.412;2023-12-22T04:32:22;20.00;;;6.23;;
5937;SDS011;2994;51.220;4.412;2023-12-22T04:34:47;12.17;;;4.80;;
5937;SDS011;2994;51.220;4.412;2023-12-22T04:37:13;18.77;;;5.93;;
5937;SDS011;2994;51.220;4.412;2023-12-22T04:39:38;11.93;;;5.77;;
5937;SDS011;2994;51.220;4.412;2023-12-22T04:42:04;17.20;;;5.07;;
5937;SDS011;2994;51.220;4.412;2023-12-22T04:44:29;18.73;;;6.10;;
5937;SDS011;2994;51.220;4.412;2023-12-22T04:46:54;16.17;;;7.03;;
5937;SDS011;2994;51.220;4.412;2023-12-22T04:49:20;28.10;;;7.50;;
5937;SDS011;2994;51.220;4.412;2023-12-22T04:51:45;21.10;;;6.70;;
5937;SDS011;2994;51.220;4.412;2023-12-22T04:54:11;20.37;;;5.90;;
5937;SDS011;2994;51.220;4.412;2023-12-22T04:56:36;15.93;;;5.33;;
5937;SDS011;2994;51.220;4.412;2023-12-22T04:59:01;19.20;;;6.43;;
5937;SDS011;2994;51.220;4.412;2023-12-22T05:01:27;18.50;;;5.43;;
5937;SDS011;2994;51.220;4.412;2023-12-22T05:03:53;11.53;;;5.33;;
5937;SDS011;2994;51.220;4.412;2023-12-22T05:06:19;19.40;;;6.27;;
5937;SDS011;2994;51.220;4.412;2023-12-22T05:08:44;24.30;;;8.10;;
5937;SDS011;2994;51.220;4.412;2023-12-22T05:11:10;15.10;;;6.40;;
5937;SDS011;2994;51.220;4.412;2023-12-22T05:13:35;22.60;;;6.70;;
5937;SDS011;2994;51.220;4.412;2023-12-22T05:16:01;22.00;;;7.63;;
5937;SDS011;2994;51.220;4.412;2023-12-22T05:18:27;17.80;;;7.27;;
5937;SDS011;2994;51.220;4.412;2023-12-22T05:20:52;21.60;;;5.87;;
5937;SDS011;2994;51.220;4.412;2023-12-22T05:23:19;16.23;;;5.70;;
5937;SDS011;2994;51.220;4.412;2023-12-22T05:25:44;23.03;;;5.70;;
5937;SDS011;2994;51.220;4.412;2023-12-22T05:28:10;18.13;;;6.17;;
5937;SDS011;2994;51.220;4.412;2023-12-22T05:30:35;20.07;;;6.20;;
5937;SDS011;2994;51.220;4.412;2023-12-22T05:33:00;23.03;;;6.40;;
5937;SDS011;2994;51.220;4.412;2023-12-22T05:35:26;21.40;;;7.20;;
5937;SDS011;2994;51.220;4.412;2023-12-22T05:37:52;19.27;;;6.93;;
5937;SDS011;2994;51.220;4.412;2023-12-22T05:40:17;21.03;;;6.50;;
5937;SDS011;2994;51.220;4.412;2023-12-22T05:42:43;18.80;;;6.73;;
5937;SDS011;2994;51.220;4.412;2023-12-22T05:45:08;21.80;;;6.40;;
5937;SDS011;2994;51.220;4.412;2023-12-22T05:47:36;21.00;;;6.67;;
5937;SDS011;2994;51.220;4.412;2023-12-22T05:50:01;19.47;;;5.67;;
5937;SDS011;2994;51.220;4.412;2023-12-22T05:52:27;16.93;;;5.70;;
5937;SDS011;2994;51.220;4.412;2023-12-22T05:54:52;13.87;;;5.20;;
5937;SDS011;2994;51.220;4.412;2023-12-22T05:57:19;16.90;;;5.27;;
5937;SDS011;2994;51.220;4.412;2023-12-22T05:59:44;14.80;;;5.33;;
5937;SDS011;2994;51.220;4.412;2023-12-22T06:02:10;21.60;;;6.83;;
5937;SDS011;2994;51.220;4.412;2023-12-22T06:04:35;20.17;;;6.20;;
5937;SDS011;2994;51.220;4.412;2023-12-22T06:07:01;16.13;;;5.97;;
5937;SDS011;2994;51.220;4.412;2023-12-22T06:09:26;14.50;;;5.33;;
5937;SDS011;2994;51.220;4.412;2023-12-22T06:11:53;17.70;;;7.23;;
5937;SDS011;2994;51.220;4.412;2023-12-22T06:14:18;14.13;;;5.70;;
5937;SDS011;2994;51.220;4.412;2023-12-22T06:16:44;20.27;;;6.37;;
5937;SDS011;2994;51.220;4.412;2023-12-22T06:19:09;16.93;;;5.40;;
5937;SDS011;2994;51.220;4.412;2023-12-22T06:21:38;16.60;;;5.27;;
5937;SDS011;2994;51.220;4.412;2023-12-22T06:24:04;17.90;;;6.83;;
5937;SDS011;2994;51.220;4.412;2023-12-22T06:26:29;17.20;;;6.07;;
5937;SDS011;2994;51.220;4.412;2023-12-22T06:28:58;17.23;;;5.60;;
5937;SDS011;2994;51.220;4.412;2023-12-22T06:31:23;9.77;;;4.67;;
5937;SDS011;2994;51.220;4.412;2023-12-22T06:33:49;15.97;;;4.87;;
5937;SDS011;2994;51.220;4.412;2023-12-22T06:36:24;16.83;;;6.30;;
5937;SDS011;2994;51.220;4.412;2023-12-22T06:38:51;15.50;;;4.00;;
5937;SDS011;2994;51.220;4.412;2023-12-22T06:43:50;13.17;;;4.57;;
5937;SDS011;2994;51.220;4.412;2023-12-22T06:46:16;10.47;;;4.07;;
5937;SDS011;2994;51.220;4.412;2023-12-22T06:48:45;11.30;;;4.13;;
5937;SDS011;2994;51.220;4.412;2023-12-22T06:51:18;16.00;;;4.80;;
5937;SDS011;2994;51.220;4.412;2023-12-22T06:53:44;11.97;;;3.67;;
5937;SDS011;2994;51.220;4.412;2023-12-22T06:56:17;9.73;;;3.90;;
5937;SDS011;2994;51.220;4.412;2023-12-22T06:58:43;11.73;;;4.30;;
5937;SDS011;2994;51.220;4.412;2023-12-22T07:01:33;16.00;;;4.60;;
5937;SDS011;2994;51.220;4.412;2023-12-22T07:03:59;11.57;;;3.03;;
5937;SDS011;2994;51.220;4.412;2023-12-22T07:06:29;10.57;;;3.60;;
5937;SDS011;2994;51.220;4.412;2023-12-22T07:11:36;10.10;;;2.60;;
5937;SDS011;2994;51.220;4.412;2023-12-22T07:14:05;10.13;;;3.73;;
5937;SDS011;2994;51.220;4.412;2023-12-22T07:16:30;10.10;;;3.10;;
5937;SDS011;2994;51.220;4.412;2023-12-22T07:18:55;7.90;;;2.50;;
5937;SDS011;2994;51.220;4.412;2023-12-22T07:21:21;11.53;;;2.97;;
5937;SDS011;2994;51.220;4.412;2023-12-22T07:23:47;7.97;;;2.80;;
5937;SDS011;2994;51.220;4.412;2023-12-22T07:26:12;13.30;;;3.40;;
5937;SDS011;2994;51.220;4.412;2023-12-22T07:28:38;11.50;;;4.00;;
5937;SDS011;2994;51.220;4.412;2023-12-22T07:31:03;15.53;;;4.00;;
5937;SDS011;2994;51.220;4.412;2023-12-22T07:33:29;8.70;;;3.80;;
5937;SDS011;2994;51.220;4.412;2023-12-22T07:35:55;8.77;;;3.03;;
5937;SDS011;2994;51.220;4.412;2023-12-22T07:38:20;12.43;;;3.20;;
5937;SDS011;2994;51.220;4.412;2023-12-22T07:40:50;12.40;;;2.80;;
5937;SDS011;2994;51.220;4.412;2023-12-22T07:43:15;6.70;;;3.10;;
5937;SDS011;2994;51.220;4.412;2023-12-22T07:45:41;12.10;;;3.50;;
5937;SDS011;2994;51.220;4.412;2023-12-22T07:48:09;9.40;;;3.33;;
5937;SDS011;2994;51.220;4.412;2023-12-22T07:50:44;11.90;;;3.93;;
5937;SDS011;2994;51.220;4.412;2023-12-22T07:53:11;11.80;;;4.90;;
5937;SDS011;2994;51.220;4.412;2023-12-22T07:55:40;11.03;;;4.27;;
5937;SDS011;2994;51.220;4.412;2023-12-22T07:58:05;12.37;;;3.33;;
5937;SDS011;2994;51.220;4.412;2023-12-22T08:00:33;9.73;;;4.13;;
5937;SDS011;2994;51.220;4.412;2023-12-22T08:02:59;13.60;;;3.93;;
5937;SDS011;2994;51.220;4.412;2023-12-22T08:05:25;8.70;;;3.77;;
5937;SDS011;2994;51.220;4.412;2023-12-22T08:07:51;6.40;;;3.30;;
5937;SDS011;2994;51.220;4.412;2023-12-22T08:10:17;17.43;;;3.67;;
5937;SDS011;2994;51.220;4.412;2023-12-22T08:12:42;9.50;;;3.80;;
5937;SDS011;2994;51.220;4.412;2023-12-22T08:15:08;8.93;;;3.17;;
5937;SDS011;2994;51.220;4.412;2023-12-22T08:17:35;8.00;;;3.90;;
5937;SDS011;2994;51.220;4.412;2023-12-22T08:20:02;8.20;;;2.73;;
5937;SDS011;2994;51.220;4.412;2023-12-22T08:22:37;6.73;;;3.23;;
5937;SDS011;2994;51.220;4.412;2023-12-22T08:25:05;7.60;;;3.03;;
5937;SDS011;2994;51.220;4.412;2023-12-22T08:27:32;6.17;;;2.07;;
5937;SDS011;2994;51.220;4.412;2023-12-22T08:29:58;5.33;;;2.83;;
5937;SDS011;2994;51.220;4.412;2023-12-22T08:32:23;5.20;;;2.70;;
5937;SDS011;2994;51.220;4.412;2023-12-22T08:34:58;7.57;;;2.73;;
5937;SDS011;2994;51.220;4.412;2023-12-22T08:37:24;5.77;;;3.33;;
5937;SDS011;2994;51.220;4.412;2023-12-22T08:39:49;4.97;;;2.70;;
5937;SDS011;2994;51.220;4.412;2023-12-22T08:42:16;4.83;;;2.40;;
5937;SDS011;2994;51.220;4.412;2023-12-22T08:44:41;4.50;;;2.50;;
5937;SDS011;2994;51.220;4.412;2023-12-22T08:47:07;4.40;;;3.00;;
5937;SDS011;2994;51.220;4.412;2023-12-22T08:49:32;5.60;;;2.73;;
5937;SDS011;2994;51.220;4.412;2023-12-22T08:52:04;6.33;;;2.53;;
5937;SDS011;2994;51.220;4.412;2023-12-22T08:54:30;3.73;;;2.40;;
5937;SDS011;2994;51.220;4.412;2023-12-22T08:56:56;3.53;;;2.63;;
5937;SDS011;2994;51.220;4.412;2023-12-22T08:59:21;6.03;;;2.50;;
5937;SDS011;2994;51.220;4.412;2023-12-22T09:01:47;6.20;;;3.13;;
5937;SDS011;2994;51.220;4.412;2023-12-22T09:04:12;3.93;;;2.70;;
5937;SDS011;2994;51.220;4.412;2023-12-22T09:06:38;4.20;;;2.50;;
5937;SDS011;2994;51.220;4.412;2023-12-22T09:09:04;5.27;;;2.47;;
5937;SDS011;2994;51.220;4.412;2023-12-22T09:11:31;6.87;;;2.40;;
5937;SDS011;2994;51.220;4.412;2023-12-22T09:14:01;5.47;;;2.40;;
5937;SDS011;2994;51.220;4.412;2023-12-22T09:16:27;5.03;;;2.87;;
5937;SDS011;2994;51.220;4.412;2023-12-22T09:18:52;3.50;;;2.20;;
5937;SDS011;2994;51.220;4.412;2023-12-22T09:21:19;7.43;;;1.70;;
5937;SDS011;2994;51.220;4.412;2023-12-22T09:23:45;3.97;;;2.20;;
5937;SDS011;2994;51.220;4.412;2023-12-22T09:26:13;6.37;;;2.30;;
5937;SDS011;2994;51.220;4.412;2023-12-22T09:28:39;4.03;;;2.20;;
5937;SDS011;2994;51.220;4.412;2023-12-22T09:31:06;3.73;;;1.90;;
5937;SDS011;2994;51.220;4.412;2023-12-22T09:33:32;5.40;;;1.90;;
5937;SDS011;2994;51.220;4.412;2023-12-22T09:35:57;7.90;;;2.20;;
5937;SDS011;2994;51.220;4.412;2023-12-22T09:38:23;5.00;;;2.03;;
5937;SDS011;2994;51.220;4.412;2023-12-22T09:40:49;5.60;;;3.00;;
5937;SDS011;2994;51.220;4.412;2023-12-22T09:43:15;6.57;;;2.37;;
5937;SDS011;2994;51.220;4.412;2023-12-22T09:45:43;4.87;;;1.90;;
5937;SDS011;2994;51.220;4.412;2023-12-22T09:48:10;5.30;;;2.10;;
5937;SDS011;2994;51.220;4.412;2023-12-22T09:50:40;7.67;;;2.17;;
5937;SDS011;2994;51.220;4.412;2023-12-22T09:53:08;3.63;;;2.10;;
5937;SDS011;2994;51.220;4.412;2023-12-22T09:55:34;5.73;;;2.70;;
5937;SDS011;2994;51.220;4.412;2023-12-22T09:58:00;5.80;;;2.33;;
5937;SDS011;2994;51.220;4.412;2023-12-22T10:00:28;4.70;;;2.10;;
5937;SDS011;2994;51.220;4.412;2023-12-22T10:02:56;7.40;;;1.63;;
5937;SDS011;2994;51.220;4.412;2023-12-22T10:05:22;5.20;;;1.50;;
5937;SDS011;2994;51.220;4.412;2023-12-22T10:07:47;4.00;;;1.50;;
5937;SDS011;2994;51.220;4.412;2023-12-22T10:10:14;5.03;;;1.80;;
5937;SDS011;2994;51.220;4.412;2023-12-22T10:12:41;3.67;;;2.30;;
5937;SDS011;2994;51.220;4.412;2023-12-22T10:15:09;5.80;;;2.00;;
5937;SDS011;2994;51.220;4.412;2023-12-22T10:17:40;3.03;;;1.80;;
5937;SDS011;2994;51.220;4.412;2023-12-22T10:20:06;3.30;;;1.57;;
5937;SDS011;2994;51.220;4.412;2023-12-22T10:22:33;4.37;;;1.77;;
5937;SDS011;2994;51.220;4.412;2023-12-22T10:24:59;6.07;;;1.87;;
5937;SDS011;2994;51.220;4.412;2023-12-22T10:27:24;7.70;;;2.40;;
5937;SDS011;2994;51.220;4.412;2023-12-22T10:29:53;5.40;;;1.90;;
5937;SDS011;2994;51.220;4.412;2023-12-22T10:32:20;4.80;;;2.00;;
5937;SDS011;2994;51.220;4.412;2023-12-22T10:34:46;4.37;;;1.70;;
5937;SDS011;2994;51.220;4.412;2023-12-22T10:37:12;4.97;;;2.50;;
5937;SDS011;2994;51.220;4.412;2023-12-22T10:39:38;7.40;;;2.10;;
5937;SDS011;2994;51.220;4.412;2023-12-22T10:42:06;3.83;;;1.90;;
5937;SDS011;2994;51.220;4.412;2023-12-22T10:44:32;10.50;;;2.40;;
5937;SDS011;2994;51.220;4.412;2023-12-22T10:46:58;4.00;;;1.60;;
5937;SDS011;2994;51.220;4.412;2023-12-22T10:49:24;4.97;;;1.60;;
5937;SDS011;2994;51.220;4.412;2023-12-22T10:51:50;8.40;;;2.60;;
5937;SDS011;2994;51.220;4.412;2023-12-22T10:54:18;8.13;;;1.90;;
5937;SDS011;2994;51.220;4.412;2023-12-22T10:56:45;4.13;;;1.57;;
5937;SDS011;2994;51.220;4.412;2023-12-22T10:59:16;3.53;;;1.80;;
5937;SDS011;2994;51.220;4.412;2023-12-22T11:01:51;5.37;;;1.80;;
5937;SDS011;2994;51.220;4.412;2023-12-22T11:04:21;2.67;;;1.70;;
5937;SDS011;2994;51.220;4.412;2023-12-22T11:06:49;7.23;;;2.10;;
5937;SDS011;2994;51.220;4.412;2023-12-22T11:09:20;6.87;;;2.77;;
5937;SDS011;2994;51.220;4.412;2023-12-22T11:11:48;6.43;;;2.50;;
5937;SDS011;2994;51.220;4.412;2023-12-22T11:14:14;6.87;;;2.90;;
5937;SDS011;2994;51.220;4.412;2023-12-22T11:16:41;4.33;;;1.60;;
5937;SDS011;2994;51.220;4.412;2023-12-22T11:19:13;2.50;;;1.90;;
5937;SDS011;2994;51.220;4.412;2023-12-22T11:21:40;5.27;;;2.27;;
5937;SDS011;2994;51.220;4.412;2023-12-22T11:24:06;5.87;;;2.00;;
5937;SDS011;2994;51.220;4.412;2023-12-22T11:26:33;6.90;;;2.00;;
5937;SDS011;2994;51.220;4.412;2023-12-22T11:28:59;8.70;;;2.20;;
5937;SDS011;2994;51.220;4.412;2023-12-22T11:31:27;4.50;;;2.33;;
5937;SDS011;2994;51.220;4.412;2023-12-22T11:33:58;6.73;;;2.37;;
5937;SDS011;2994;51.220;4.412;2023-12-22T11:36:25;4.53;;;1.73;;
5937;SDS011;2994;51.220;4.412;2023-12-22T11:38:51;5.23;;;1.87;;
5937;SDS011;2994;51.220;4.412;2023-12-22T11:41:18;5.00;;;2.03;;
5937;SDS011;2994;51.220;4.412;2023-12-22T11:43:46;6.77;;;2.07;;
5937;SDS011;2994;51.220;4.412;2023-12-22T11:46:13;5.83;;;2.17;;
5937;SDS011;2994;51.220;4.412;2023-12-22T11:48:48;5.93;;;3.00;;
5937;SDS011;2994;51.220;4.412;2023-12-22T11:51:16;4.53;;;2.30;;
5937;SDS011;2994;51.220;4.412;2023-12-22T11:53:42;7.57;;;2.20;;
5937;SDS011;2994;51.220;4.412;2023-12-22T11:56:08;5.17;;;1.67;;
5937;SDS011;2994;51.220;4.412;2023-12-22T11:58:35;5.80;;;1.70;;
5937;SDS011;2994;51.220;4.412;2023-12-22T12:01:01;4.07;;;1.87;;
5937;SDS011;2994;51.220;4.412;2023-12-22T12:03:31;4.03;;;1.40;;
5937;SDS011;2994;51.220;4.412;2023-12-22T12:08:42;2.90;;;1.50;;
5937;SDS011;2994;51.220;4.412;2023-12-22T12:11:08;4.43;;;1.70;;
5937;SDS011;2994;51.220;4.412;2023-12-22T12:13:34;4.97;;;2.10;;
5937;SDS011;2994;51.220;4.412;2023-12-22T12:16:04;5.37;;;1.70;;
5937;SDS011;2994;51.220;4.412;2023-12-22T12:18:32;6.57;;;1.73;;
5937;SDS011;2994;51.220;4.412;2023-12-22T12:20:59;8.10;;;1.70;;
5937;SDS011;2994;51.220;4.412;2023-12-22T12:23:28;4.53;;;2.20;;
5937;SDS011;2994;51.220;4.412;2023-12-22T12:25:54;4.20;;;1.50;;
5937;SDS011;2994;51.220;4.412;2023-12-22T12:28:26;3.27;;;1.23;;
5937;SDS011;2994;51.220;4.412;2023-12-22T12:31:00;3.00;;;1.40;;
5937;SDS011;2994;51.220;4.412;2023-12-22T12:33:30;5.50;;;1.57;;
5937;SDS011;2994;51.220;4.412;2023-12-22T12:35:57;3.00;;;0.93;;
5937;SDS011;2994;51.220;4.412;2023-12-22T12:39:08;6.40;;;2.80;;
5937;SDS011;2994;51.220;4.412;2023-12-22T12:41:30;5.47;;;1.40;;
5937;SDS011;2994;51.220;4.412;2023-12-22T12:43:59;7.03;;;2.10;;
5937;SDS011;2994;51.220;4.412;2023-12-22T12:46:35;4.50;;;1.50;;
5937;SDS011;2994;51.220;4.412;2023-12-22T12:49:07;2.27;;;1.20;;
5937;SDS011;2994;51.220;4.412;2023-12-22T12:51:47;4.00;;;2.00;;
5937;SDS011;2994;51.220;4.412;2023-12-22T12:54:15;4.40;;;1.83;;
5937;SDS011;2994;51.220;4.412;2023-12-22T12:56:46;5.80;;;1.50;;
5937;SDS011;2994;51.220;4.412;2023-12-22T12:59:13;5.67;;;1.60;;
5937;SDS011;2994;51.220;4.412;2023-12-22T13:01:40;6.30;;;1.87;;
5937;SDS011;2994;51.220;4.412;2023-12-22T13:04:15;4.37;;;1.47;;
5937;SDS011;2994;51.220;4.412;2023-12-22T13:06:44;2.60;;;1.50;;
5937;SDS011;2994;51.220;4.412;2023-12-22T13:09:13;5.43;;;2.07;;
5937;SDS011;2994;51.220;4.412;2023-12-22T13:11:39;5.20;;;1.60;;
5937;SDS011;2994;51.220;4.412;2023-12-22T13:14:11;5.00;;;1.90;;
5937;SDS011;2994;51.220;4.412;2023-12-22T13:16:36;7.17;;;1.70;;
5937;SDS011;2994;51.220;4.412;2023-12-22T13:19:04;5.40;;;1.90;;
5937;SDS011;2994;51.220;4.412;2023-12-22T13:21:30;4.70;;;1.73;;
5937;SDS011;2994;51.220;4.412;2023-12-22T13:24:11;5.17;;;1.87;;
5937;SDS011;2994;51.220;4.412;2023-12-22T13:26:38;7.77;;;2.00;;
5937;SDS011;2994;51.220;4.412;2023-12-22T13:29:08;6.13;;;2.10;;
5937;SDS011;2994;51.220;4.412;2023-12-22T13:31:38;6.27;;;1.70;;
5937;SDS011;2994;51.220;4.412;2023-12-22T13:34:14;6.67;;;1.53;;
5937;SDS011;2994;51.220;4.412;2023-12-22T13:36:44;9.70;;;2.23;;
5937;SDS011;2994;51.220;4.412;2023-12-22T13:39:09;7.33;;;1.73;;
5937;SDS011;2994;51.220;4.412;2023-12-22T13:41:38;3.60;;;1.67;;
5937;SDS011;2994;51.220;4.412;2023-12-22T13:44:11;2.80;;;1.47;;
5937;SDS011;2994;51.220;4.412;2023-12-22T13:46:37;3.63;;;1.43;;
5937;SDS011;2994;51.220;4.412;2023-12-22T13:49:06;3.80;;;1.70;;
5937;SDS011;2994;51.220;4.412;2023-12-22T13:51:40;3.37;;;1.40;;
5937;SDS011;2994;51.220;4.412;2023-12-22T13:54:09;5.87;;;1.40;;
5937;SDS011;2994;51.220;4.412;2023-12-22T13:56:35;7.27;;;2.23;;
5937;SDS011;2994;51.220;4.412;2023-12-22T13:59:02;5.13;;;1.40;;
5937;SDS011;2994;51.220;4.412;2023-12-22T14:01:28;5.20;;;1.97;;
5937;SDS011;2994;51.220;4.412;2023-12-22T14:03:54;4.90;;;1.60;;
5937;SDS011;2994;51.220;4.412;2023-12-22T14:06:22;6.20;;;1.90;;
5937;SDS011;2994;51.220;4.412;2023-12-22T14:08:48;8.20;;;3.00;;
5937;SDS011;2994;51.220;4.412;2023-12-22T14:11:13;3.60;;;1.77;;
5937;SDS011;2994;51.220;4.412;2023-12-22T14:13:44;4.37;;;1.80;;
5937;SDS011;2994;51.220;4.412;2023-12-22T14:16:09;5.73;;;1.80;;
5937;SDS011;2994;51.220;4.412;2023-12-22T14:18:35;3.10;;;1.83;;
5937;SDS011;2994;51.220;4.412;2023-12-22T14:21:00;8.00;;;1.80;;
5937;SDS011;2994;51.220;4.412;2023-12-22T14:23:26;6.43;;;1.30;;
5937;SDS011;2994;51.220;4.412;2023-12-22T14:25:54;3.50;;;1.57;;
5937;SDS011;2994;51.220;4.412;2023-12-22T14:28:20;4.97;;;1.50;;
5937;SDS011;2994;51.220;4.412;2023-12-22T14:30:45;5.87;;;1.47;;
5937;SDS011;2994;51.220;4.412;2023-12-22T14:33:11;5.80;;;1.60;;
5937;SDS011;2994;51.220;4.412;2023-12-22T14:35:36;4.70;;;2.17;;
5937;SDS011;2994;51.220;4.412;2023-12-22T14:38:05;4.03;;;1.83;;
5937;SDS011;2994;51.220;4.412;2023-12-22T14:40:30;4.70;;;2.07;;
5937;SDS011;2994;51.220;4.412;2023-12-22T14:42:56;3.43;;;1.50;;
5937;SDS011;2994;51.220;4.412;2023-12-22T14:45:21;4.30;;;1.70;;
5937;SDS011;2994;51.220;4.412;2023-12-22T14:47:48;6.67;;;1.90;;
5937;SDS011;2994;51.220;4.412;2023-12-22T14:50:13;6.40;;;1.30;;
5937;SDS011;2994;51.220;4.412;2023-12-22T14:52:39;3.60;;;1.47;;
5937;SDS011;2994;51.220;4.412;2023-12-22T14:55:05;5.23;;;2.23;;
5937;SDS011;2994;51.220;4.412;2023-12-22T14:57:31;6.57;;;1.63;;
5937;SDS011;2994;51.220;4.412;2023-12-22T15:00:00;6.70;;;1.60;;
5937;SDS011;2994;51.220;4.412;2023-12-22T15:02:28;5.13;;;2.10;;
5937;SDS011;2994;51.220;4.412;2023-12-22T15:04:54;7.23;;;2.10;;
5937;SDS011;2994;51.220;4.412;2023-12-22T15:07:20;3.40;;;1.60;;
5937;SDS011;2994;51.220;4.412;2023-12-22T15:09:45;6.03;;;1.77;;
5937;SDS011;2994;51.220;4.412;2023-12-22T15:12:13;3.93;;;1.53;;
5937;SDS011;2994;51.220;4.412;2023-12-22T15:14:43;10.63;;;2.97;;
5937;SDS011;2994;51.220;4.412;2023-12-22T15:17:09;5.63;;;2.97;;
5937;SDS011;2994;51.220;4.412;2023-12-22T15:19:35;4.13;;;1.80;;
5937;SDS011;2994;51.220;4.412;2023-12-22T15:22:06;7.00;;;1.73;;
5937;SDS011;2994;51.220;4.412;2023-12-22T15:24:31;5.93;;;2.27;;